createdAt,value
2017-12-08T00:01:42.106Z,96739.30
2017-12-08T00:04:08.542Z,96745.13
2017-12-08T00:06:35.032Z,96736.75
2017-12-08T00:09:01.579Z,96730.71
2017-12-08T00:11:28.041Z,96727.53
2017-12-08T00:13:54.598Z,96743.50
2017-12-08T00:16:20.869Z,96732.27
2017-12-08T00:18:47.338Z,96720.19
2017-12-08T00:21:13.672Z,96725.87
2017-12-08T00:23:40.077Z,96725.47
2017-12-08T00:26:06.733Z,96713.88
2017-12-08T00:28:33.302Z,96715.30
2017-12-08T00:31:05.605Z,96699.70
2017-12-08T00:33:32.230Z,96681.69
2017-12-08T00:35:58.733Z,96691.71
2017-12-08T00:38:25.196Z,96679.66
2017-12-08T00:40:51.419Z,96657.66
2017-12-08T00:43:17.785Z,96670.09
2017-12-08T00:45:44.120Z,96662.37
2017-12-08T00:48:10.417Z,96680.09
2017-12-08T00:50:37.001Z,96696.23
2017-12-08T00:53:03.633Z,96705.59
2017-12-08T00:55:30.002Z,96685.34
2017-12-08T00:57:56.357Z,96697.00
2017-12-08T01:00:22.954Z,96703.03
2017-12-08T01:02:49.355Z,96699.22
2017-12-08T01:05:15.916Z,96702.16
2017-12-08T01:07:42.224Z,96707.35
2017-12-08T01:10:08.546Z,96705.89
2017-12-08T01:12:34.673Z,96721.56
2017-12-08T01:15:00.724Z,96722.63
2017-12-08T01:17:26.733Z,96721.30
2017-12-08T01:19:52.767Z,96708.17
2017-12-08T01:22:18.967Z,96717.67
2017-12-08T01:24:45.183Z,96717.12
2017-12-08T01:27:11.321Z,96722.38
2017-12-08T01:29:37.335Z,96730.22
2017-12-08T01:32:03.432Z,96737.42
2017-12-08T01:34:29.495Z,96732.38
2017-12-08T01:36:55.509Z,96721.81
2017-12-08T01:39:21.534Z,96730.71
2017-12-08T01:41:47.575Z,96724.63
2017-12-08T01:44:13.890Z,96709.91
2017-12-08T01:46:40.292Z,96712.89
2017-12-08T01:49:06.903Z,96722.20
2017-12-08T01:51:33.334Z,96726.48
2017-12-08T01:53:59.723Z,96723.11
2017-12-08T01:56:26.162Z,96712.39
2017-12-08T01:58:52.681Z,96708.13
2017-12-08T02:01:19.202Z,96725.38
2017-12-08T02:03:45.552Z,96713.53
2017-12-08T02:06:11.804Z,96716.19
2017-12-08T02:08:38.209Z,96701.09
2017-12-08T02:11:04.898Z,96704.49
2017-12-08T02:13:31.396Z,96707.50
2017-12-08T02:15:57.760Z,96700.69
2017-12-08T02:18:24.590Z,96703.55
2017-12-08T02:20:51.132Z,96701.52
2017-12-08T02:23:17.337Z,96695.83
2017-12-08T02:25:43.907Z,96702.06
2017-12-08T02:28:10.230Z,96682.45
2017-12-08T02:30:36.719Z,96686.05
2017-12-08T02:33:03.263Z,96687.34
2017-12-08T02:35:29.569Z,96681.25
2017-12-08T02:37:55.880Z,96674.59
2017-12-08T02:40:22.267Z,96680.63
2017-12-08T02:42:48.841Z,96683.48
2017-12-08T02:45:15.124Z,96673.66
2017-12-08T02:47:41.482Z,96679.95
2017-12-08T02:50:07.859Z,96682.89
2017-12-08T02:52:34.517Z,96677.77
2017-12-08T02:55:00.935Z,96675.95
2017-12-08T02:57:27.390Z,96686.37
2017-12-08T02:59:53.797Z,96666.80
2017-12-08T03:02:20.261Z,96668.01
2017-12-08T03:04:46.856Z,96667.63
2017-12-08T03:07:20.143Z,96672.00
2017-12-08T03:09:46.613Z,96665.66
2017-12-08T03:12:12.956Z,96675.22
2017-12-08T03:14:39.655Z,96674.68
2017-12-08T03:17:07.032Z,96676.13
2017-12-08T03:19:33.527Z,96676.56
2017-12-08T03:21:59.979Z,96676.95
2017-12-08T03:24:26.492Z,96658.61
2017-12-08T03:26:52.954Z,96659.23
2017-12-08T03:29:19.469Z,96664.94
2017-12-08T03:31:49.024Z,96663.41
2017-12-08T03:34:15.900Z,96667.91
2017-12-08T03:36:42.284Z,96666.11
2017-12-08T03:39:08.648Z,96663.88
2017-12-08T03:41:35.152Z,96661.18
2017-12-08T03:44:01.897Z,96651.99
2017-12-08T03:46:28.218Z,96656.53
2017-12-08T03:48:54.653Z,96650.86
2017-12-08T03:51:21.154Z,96654.06
2017-12-08T03:53:47.689Z,96654.73
2017-12-08T03:56:14.053Z,96647.88
2017-12-08T03:58:40.491Z,96647.84
2017-12-08T04:01:06.997Z,96643.86
2017-12-08T04:03:33.567Z,96650.50
2017-12-08T04:05:59.943Z,96640.53
2017-12-08T04:08:26.326Z,96628.22
2017-12-08T04:10:52.594Z,96634.78
2017-12-08T04:13:19.101Z,96637.64
2017-12-08T04:15:45.408Z,96643.43
2017-12-08T04:18:11.766Z,96637.80
2017-12-08T04:20:38.304Z,96627.28
2017-12-08T04:23:04.664Z,96642.17
2017-12-08T04:25:31.231Z,96645.03
2017-12-08T04:27:57.658Z,96642.21
2017-12-08T04:30:23.960Z,96644.37
2017-12-08T04:32:50.122Z,96635.96
2017-12-08T04:35:16.940Z,96633.34
2017-12-08T04:37:43.513Z,96640.42
2017-12-08T04:40:10.146Z,96640.37
2017-12-08T04:42:36.574Z,96638.34
2017-12-08T04:45:03.209Z,96647.77
2017-12-08T04:47:36.664Z,96653.44
2017-12-08T04:50:03.081Z,96642.13
2017-12-08T04:52:29.739Z,96650.55
2017-12-08T04:54:56.253Z,96647.45
2017-12-08T04:57:22.607Z,96656.22
2017-12-08T04:59:49.203Z,96640.34
2017-12-08T05:02:15.553Z,96643.66
2017-12-08T05:04:42.034Z,96638.19
2017-12-08T05:07:08.484Z,96637.99
2017-12-08T05:09:35.078Z,96640.22
2017-12-08T05:12:01.471Z,96632.80
2017-12-08T05:14:28.127Z,96635.65
2017-12-08T05:16:54.689Z,96642.06
2017-12-08T05:19:21.137Z,96634.27
2017-12-08T05:21:47.505Z,96632.63
2017-12-08T05:24:13.925Z,96628.99
2017-12-08T05:26:40.476Z,96642.99
2017-12-08T05:29:06.846Z,96626.84
2017-12-08T05:31:33.342Z,96639.74
2017-12-08T05:34:00.134Z,96632.07
2017-12-08T05:36:26.393Z,96635.24
2017-12-08T05:38:53.000Z,96637.91
2017-12-08T05:41:19.556Z,96633.55
2017-12-08T05:43:47.089Z,96632.97
2017-12-08T05:46:13.349Z,96624.95
2017-12-08T05:48:39.829Z,96619.97
2017-12-08T05:51:06.521Z,96624.23
2017-12-08T05:53:33.207Z,96628.03
2017-12-08T05:56:01.736Z,96626.23
2017-12-08T05:58:29.168Z,96617.67
2017-12-08T06:00:55.739Z,96612.12
2017-12-08T06:03:22.180Z,96624.56
2017-12-08T06:05:48.649Z,96632.34
2017-12-08T06:08:15.024Z,96621.00
2017-12-08T06:10:41.616Z,96624.25
2017-12-08T06:13:07.850Z,96617.13
2017-12-08T06:15:34.488Z,96617.70
2017-12-08T06:18:00.782Z,96604.28
2017-12-08T06:20:27.200Z,96594.22
2017-12-08T06:22:53.670Z,96610.79
2017-12-08T06:25:20.201Z,96602.95
2017-12-08T06:27:46.777Z,96596.52
2017-12-08T06:30:14.307Z,96587.98
2017-12-08T06:32:40.928Z,96603.14
2017-12-08T06:35:07.445Z,96610.48
2017-12-08T06:37:33.898Z,96597.61
2017-12-08T06:40:00.480Z,96599.84
2017-12-08T06:42:26.762Z,96603.05
2017-12-08T06:44:55.027Z,96608.09
2017-12-08T06:47:21.504Z,96598.78
2017-12-08T06:49:47.925Z,96593.81
2017-12-08T06:52:14.449Z,96597.65
2017-12-08T06:54:40.952Z,96595.09
2017-12-08T06:57:07.282Z,96597.47
2017-12-08T06:59:33.654Z,96601.12
2017-12-08T07:02:00.102Z,96608.81
2017-12-08T07:04:26.737Z,96600.50
2017-12-08T07:06:53.505Z,96594.77
2017-12-08T07:09:20.011Z,96598.64
2017-12-08T07:11:46.623Z,96593.64
2017-12-08T07:14:13.235Z,96609.77
2017-12-08T07:16:39.845Z,96608.02
2017-12-08T07:19:06.701Z,96603.44
2017-12-08T07:21:37.253Z,96598.36
2017-12-08T07:24:03.707Z,96595.53
2017-12-08T07:26:30.045Z,96595.66
2017-12-08T07:28:56.808Z,96593.40
2017-12-08T07:31:23.240Z,96588.28
2017-12-08T07:33:49.826Z,96600.61
2017-12-08T07:36:16.392Z,96596.68
2017-12-08T07:38:43.424Z,96596.97
2017-12-08T07:41:09.967Z,96595.38
2017-12-08T07:43:36.581Z,96586.73
2017-12-08T07:46:03.058Z,96590.97
2017-12-08T07:48:29.782Z,96591.30
2017-12-08T07:50:56.236Z,96581.86
2017-12-08T07:53:22.702Z,96583.23
2017-12-08T07:55:49.278Z,96583.73
2017-12-08T07:58:15.770Z,96578.77
2017-12-08T08:00:42.440Z,96584.72
2017-12-08T08:03:09.067Z,96587.50
2017-12-08T08:05:35.741Z,96585.41
2017-12-08T08:08:03.732Z,96592.41
2017-12-08T08:10:31.038Z,96589.80
2017-12-08T08:12:59.648Z,96586.62
2017-12-08T08:15:26.246Z,96596.26
2017-12-08T08:17:52.421Z,96607.95
2017-12-08T08:20:20.964Z,96598.20
2017-12-08T08:22:49.460Z,96606.97
2017-12-08T08:25:16.069Z,96585.14
2017-12-08T08:27:42.795Z,96622.50
2017-12-08T08:30:09.298Z,96629.61
2017-12-08T08:32:35.881Z,96636.66
2017-12-08T08:35:02.423Z,96636.22
2017-12-08T08:37:28.708Z,96637.17
2017-12-08T08:39:55.242Z,96634.20
2017-12-08T08:42:21.603Z,96646.43
2017-12-08T08:44:48.057Z,96651.03
2017-12-08T08:47:14.912Z,96640.41
2017-12-08T08:49:41.451Z,96651.02
2017-12-08T08:52:08.941Z,96651.11
2017-12-08T08:54:35.356Z,96645.98
2017-12-08T08:59:35.964Z,96649.09
2017-12-08T09:02:03.951Z,96663.58
2017-12-08T09:07:03.047Z,96673.20
2017-12-08T09:09:29.663Z,96662.69
2017-12-08T09:11:56.800Z,96671.70
2017-12-08T09:14:23.085Z,96670.84
2017-12-08T09:16:49.552Z,96662.41
2017-12-08T09:19:16.009Z,96675.53
2017-12-08T09:21:48.399Z,96676.33
2017-12-08T09:24:14.837Z,96682.77
2017-12-08T09:26:41.394Z,96683.16
2017-12-08T09:29:31.066Z,96682.05
2017-12-08T09:31:57.531Z,96677.13
2017-12-08T09:34:23.907Z,96689.28
2017-12-08T09:36:52.280Z,96685.73
2017-12-08T09:39:21.173Z,96676.08
2017-12-08T09:41:47.717Z,96676.08
2017-12-08T09:44:14.448Z,96674.86
2017-12-08T09:46:42.695Z,96679.78
2017-12-08T09:49:09.168Z,96682.66
2017-12-08T09:51:35.856Z,96689.08
2017-12-08T09:54:02.316Z,96695.38
2017-12-08T09:56:29.070Z,96697.45
2017-12-08T09:58:55.864Z,96699.92
2017-12-08T10:01:22.366Z,96692.19
2017-12-08T10:03:49.027Z,96677.48
2017-12-08T10:06:19.685Z,96675.66
2017-12-08T10:08:46.537Z,96680.06
2017-12-08T10:11:12.919Z,96681.30
2017-12-08T10:13:39.629Z,96680.14
2017-12-08T10:16:06.135Z,96682.27
2017-12-08T10:18:32.864Z,96674.48
2017-12-08T10:20:59.407Z,96683.16
2017-12-08T10:23:25.929Z,96695.41
2017-12-08T10:25:52.123Z,96696.75
2017-12-08T10:28:18.376Z,96683.56
2017-12-08T10:30:46.816Z,96683.20
2017-12-08T10:33:13.329Z,96679.53
2017-12-08T10:35:40.123Z,96681.34
2017-12-08T10:38:06.615Z,96675.05
2017-12-08T10:40:33.133Z,96672.02
2017-12-08T10:42:59.384Z,96678.30
2017-12-08T10:45:25.787Z,96660.77
2017-12-08T10:47:52.069Z,96664.63
2017-12-08T10:50:18.620Z,96681.52
2017-12-08T10:52:45.050Z,96690.53
2017-12-08T10:55:11.476Z,96673.41
2017-12-08T10:57:37.868Z,96677.72
2017-12-08T11:00:04.445Z,96668.34
2017-12-08T11:02:30.934Z,96672.64
2017-12-08T11:04:57.281Z,96669.95
2017-12-08T11:07:23.843Z,96673.13
2017-12-08T11:09:50.298Z,96687.70
2017-12-08T11:12:16.843Z,96672.17
2017-12-08T11:14:43.374Z,96672.61
2017-12-08T11:17:09.990Z,96663.27
2017-12-08T11:19:36.703Z,96653.52
2017-12-08T11:27:09.533Z,96659.54
2017-12-08T11:29:37.357Z,96673.05
2017-12-08T11:32:04.081Z,96674.91
2017-12-08T11:34:30.425Z,96668.62
2017-12-08T11:37:05.395Z,96686.51
2017-12-08T11:39:31.846Z,96695.56
2017-12-08T11:41:58.627Z,96693.77
2017-12-08T11:44:24.863Z,96703.88
2017-12-08T11:46:51.409Z,96705.83
2017-12-08T11:49:18.196Z,96696.02
2017-12-08T11:51:45.960Z,96694.90
2017-12-08T11:54:13.574Z,96687.18
2017-12-08T11:56:39.798Z,96689.47
2017-12-08T11:59:05.875Z,96688.52
2017-12-08T12:01:33.377Z,96677.71
2017-12-08T12:03:59.905Z,96674.95
2017-12-08T12:06:26.264Z,96667.87
2017-12-08T12:08:52.640Z,96675.92
2017-12-08T12:11:19.029Z,96682.69
2017-12-08T12:13:45.446Z,96674.44
2017-12-08T12:16:12.476Z,96666.69
2017-12-08T12:21:25.984Z,96674.09
2017-12-08T12:23:52.374Z,96674.33
2017-12-08T12:26:18.588Z,96665.12
2017-12-08T12:28:45.038Z,96649.30
2017-12-08T12:31:13.037Z,96657.08
2017-12-08T12:33:40.389Z,96639.06
2017-12-08T12:36:07.495Z,96638.44
2017-12-08T12:38:34.380Z,96650.69
2017-12-08T12:41:01.164Z,96638.55
2017-12-08T12:43:27.521Z,96637.23
2017-12-08T12:45:54.349Z,96639.13
2017-12-08T12:48:20.686Z,96645.05
2017-12-08T12:50:47.144Z,96642.29
2017-12-08T12:53:13.675Z,96651.53
2017-12-08T12:55:40.422Z,96643.20
2017-12-08T12:58:06.996Z,96641.04
2017-12-08T13:00:33.611Z,96635.69
2017-12-08T13:02:59.895Z,96643.73
2017-12-08T13:05:26.393Z,96635.81
2017-12-08T13:07:52.672Z,96639.19
2017-12-08T13:10:19.164Z,96628.08
2017-12-08T13:12:45.938Z,96630.23
2017-12-08T13:15:12.228Z,96633.45
2017-12-08T13:17:38.466Z,96629.00
2017-12-08T13:20:04.845Z,96646.13
2017-12-08T13:22:31.390Z,96646.84
2017-12-08T13:24:57.892Z,96654.69
2017-12-08T13:27:24.295Z,96667.27
2017-12-08T13:32:42.832Z,96707.45
2017-12-08T13:35:09.082Z,96720.45
2017-12-08T13:37:35.616Z,96722.79
2017-12-08T13:40:01.987Z,96727.11
2017-12-08T13:42:28.262Z,96725.76
2017-12-08T13:44:54.537Z,96723.23
2017-12-08T13:47:20.878Z,96721.55
2017-12-08T13:49:49.008Z,96718.09
2017-12-08T13:52:16.085Z,96725.95
2017-12-08T13:54:54.472Z,96718.24
2017-12-08T13:57:20.745Z,96714.91
2017-12-08T13:59:48.156Z,96711.27
2017-12-08T14:02:14.720Z,96706.27
2017-12-08T14:04:41.022Z,96710.68
2017-12-08T14:07:07.621Z,96712.30
2017-12-08T14:09:33.922Z,96718.98
2017-12-08T14:12:00.212Z,96710.59
2017-12-08T14:14:26.448Z,96706.89
2017-12-08T14:16:52.823Z,96701.04
2017-12-08T14:19:19.952Z,96694.16
2017-12-08T14:21:46.098Z,96703.76
2017-12-08T14:24:12.250Z,96695.92
2017-12-08T14:26:38.865Z,96704.72
2017-12-08T14:29:05.258Z,96702.94
2017-12-08T14:31:31.432Z,96698.63
2017-12-08T14:33:57.664Z,96703.42
2017-12-08T14:36:23.887Z,96706.17
2017-12-08T14:38:52.235Z,96703.33
2017-12-08T14:41:18.589Z,96697.33
2017-12-08T14:43:46.406Z,96697.46
2017-12-08T14:46:12.929Z,96686.64
2017-12-08T14:48:39.317Z,96682.80
2017-12-08T14:51:05.973Z,96676.25
2017-12-08T14:53:32.609Z,96679.86
2017-12-08T14:55:59.332Z,96673.41
2017-12-08T14:58:26.115Z,96678.34
2017-12-08T15:00:53.727Z,96680.56
2017-12-08T15:03:20.177Z,96672.19
2017-12-08T15:05:47.132Z,96678.84
2017-12-08T15:08:15.283Z,96684.56
2017-12-08T15:10:42.859Z,96676.36
2017-12-08T15:13:09.364Z,96675.27
2017-12-08T15:15:37.205Z,96681.98
2017-12-08T15:18:03.601Z,96675.11
2017-12-08T15:20:29.995Z,96675.34
2017-12-08T15:22:56.590Z,96680.90
2017-12-08T15:25:22.917Z,96689.20
2017-12-08T15:27:49.449Z,96684.02
2017-12-08T15:30:15.543Z,96679.14
2017-12-08T15:32:41.913Z,96692.02
2017-12-08T15:35:08.363Z,96686.55
2017-12-08T15:37:34.981Z,96693.37
2017-12-08T15:40:01.336Z,96693.10
2017-12-08T15:42:27.714Z,96704.05
2017-12-08T15:44:54.326Z,96705.11
2017-12-08T15:47:20.811Z,96711.46
2017-12-08T15:49:47.078Z,96714.73
2017-12-08T15:52:13.595Z,96728.03
2017-12-08T15:54:40.013Z,96737.17
2017-12-08T15:57:06.832Z,96733.99
2017-12-08T15:59:33.351Z,96746.59
2017-12-08T16:01:59.728Z,96744.48
2017-12-08T16:04:26.368Z,96754.97
2017-12-08T16:06:52.769Z,96765.86
2017-12-08T16:09:19.267Z,96770.06
2017-12-08T16:11:46.193Z,96771.13
2017-12-08T16:14:12.728Z,96782.41
2017-12-08T16:16:39.076Z,96789.88
2017-12-08T16:19:06.043Z,96792.79
2017-12-08T16:21:32.248Z,96785.11
2017-12-08T16:23:58.786Z,96782.83
2017-12-08T16:26:25.452Z,96793.73
2017-12-08T16:28:52.050Z,96797.27
2017-12-08T16:31:19.523Z,96796.70
2017-12-08T16:33:46.025Z,96785.64
2017-12-08T16:36:12.488Z,96797.28
2017-12-08T16:38:38.951Z,96799.22
2017-12-08T16:41:05.195Z,96795.73
2017-12-08T16:43:31.373Z,96801.55
2017-12-08T16:45:57.668Z,96803.60
2017-12-08T16:48:23.941Z,96818.40
2017-12-08T16:50:50.218Z,96819.94
2017-12-08T16:53:16.693Z,96812.08
2017-12-08T16:55:43.287Z,96802.48
2017-12-08T16:58:09.664Z,96802.02
2017-12-08T17:00:35.954Z,96803.22
2017-12-08T17:03:02.263Z,96798.79
2017-12-08T17:05:28.764Z,96801.61
2017-12-08T17:07:55.191Z,96803.39
2017-12-08T17:10:21.620Z,96807.42
2017-12-08T17:12:48.031Z,96804.09
2017-12-08T17:15:14.754Z,96811.50
2017-12-08T17:17:41.101Z,96809.78
2017-12-08T17:20:07.615Z,96810.89
2017-12-08T17:22:33.982Z,96808.05
2017-12-08T17:25:00.457Z,96806.17
2017-12-08T17:27:27.695Z,96803.69
2017-12-08T17:29:54.127Z,96804.21
2017-12-08T17:32:20.504Z,96804.71
2017-12-08T17:34:46.882Z,96796.79
2017-12-08T17:37:13.162Z,96794.86
2017-12-08T17:39:39.968Z,96798.30
2017-12-08T17:42:06.223Z,96804.63
2017-12-08T17:44:32.517Z,96796.74
2017-12-08T17:46:58.867Z,96794.16
2017-12-08T17:49:25.053Z,96799.29
2017-12-08T17:51:51.493Z,96787.77
2017-12-08T17:54:18.123Z,96787.28
2017-12-08T17:56:44.401Z,96789.42
2017-12-08T17:59:10.809Z,96785.28
2017-12-08T18:01:37.155Z,96776.95
2017-12-08T18:04:03.645Z,96778.40
2017-12-08T18:06:30.007Z,96783.16
2017-12-08T18:08:56.229Z,96771.64
2017-12-08T18:11:22.469Z,96767.30
2017-12-08T18:13:48.866Z,96769.13
2017-12-08T18:16:15.343Z,96765.68
2017-12-08T18:18:41.632Z,96772.16
2017-12-08T18:21:07.916Z,96768.54
2017-12-08T18:23:34.428Z,96760.73
2017-12-08T18:26:00.771Z,96769.48
2017-12-08T18:28:27.086Z,96764.45
2017-12-08T18:30:53.566Z,96765.03
2017-12-08T18:33:19.887Z,96762.45
2017-12-08T18:35:46.075Z,96757.62
2017-12-08T18:38:12.598Z,96753.58
2017-12-08T18:40:38.930Z,96757.45
2017-12-08T18:43:05.216Z,96756.00
2017-12-08T18:45:31.675Z,96754.56
2017-12-08T18:47:57.964Z,96751.28
2017-12-08T18:50:24.375Z,96761.31
2017-12-08T18:52:51.434Z,96760.00
2017-12-08T18:55:17.838Z,96760.06
2017-12-08T18:57:52.795Z,96765.34
2017-12-08T19:00:18.996Z,96758.77
2017-12-08T19:02:45.074Z,96753.92
2017-12-08T19:05:11.152Z,96747.37
2017-12-08T19:07:37.401Z,96747.28
2017-12-08T19:10:03.729Z,96753.39
2017-12-08T19:12:29.928Z,96757.17
2017-12-08T19:14:56.784Z,96751.61
2017-12-08T19:17:22.973Z,96742.55
2017-12-08T19:19:49.139Z,96744.52
2017-12-08T19:22:15.190Z,96749.34
2017-12-08T19:24:41.398Z,96740.55
2017-12-08T19:27:07.638Z,96733.52
2017-12-08T19:29:33.763Z,96740.13
2017-12-08T19:32:00.465Z,96742.61
2017-12-08T19:34:26.744Z,96736.71
2017-12-08T19:36:53.377Z,96727.11
2017-12-08T19:39:19.722Z,96724.88
2017-12-08T19:41:47.267Z,96722.89
2017-12-08T19:44:13.813Z,96727.08
2017-12-08T19:46:40.033Z,96737.22
2017-12-08T19:49:06.472Z,96742.27
2017-12-08T19:51:32.805Z,96750.12
2017-12-08T19:53:59.560Z,96752.88
2017-12-08T19:56:26.079Z,96755.67
2017-12-08T19:58:52.685Z,96756.52
2017-12-08T20:01:19.584Z,96760.23
2017-12-08T20:03:46.752Z,96765.83
2017-12-08T20:06:13.277Z,96761.94
2017-12-08T20:08:40.071Z,96765.40
2017-12-08T20:11:06.426Z,96777.91
2017-12-08T20:13:32.888Z,96772.59
2017-12-08T20:15:59.551Z,96780.05
2017-12-08T20:18:30.966Z,96785.12
2017-12-08T20:20:57.613Z,96791.28
2017-12-08T20:23:25.702Z,96787.19
2017-12-08T20:33:41.954Z,96773.69
2017-12-08T20:36:14.424Z,96766.88
2017-12-08T20:46:29.994Z,96762.80
2017-12-08T20:48:58.686Z,96758.11
2017-12-08T20:51:25.485Z,96760.89
2017-12-08T20:53:52.085Z,96763.63
2017-12-08T20:56:18.766Z,96758.72
2017-12-08T20:58:45.194Z,96758.62
2017-12-08T21:01:11.797Z,96757.67
2017-12-08T21:03:38.285Z,96750.56
2017-12-08T21:06:05.993Z,96755.26
2017-12-08T21:08:32.630Z,96749.95
2017-12-08T21:10:59.282Z,96752.53
2017-12-08T21:13:26.451Z,96755.26
2017-12-08T21:15:53.153Z,96756.73
2017-12-08T21:18:19.459Z,96755.09
2017-12-08T21:20:45.823Z,96752.03
2017-12-08T21:23:12.637Z,96748.93
2017-12-08T21:25:39.084Z,96758.34
2017-12-08T21:28:05.469Z,96753.95
2017-12-08T21:30:32.225Z,96750.86
2017-12-08T21:32:58.697Z,96750.98
2017-12-08T21:35:24.980Z,96763.91
2017-12-08T21:37:51.298Z,96767.73
2017-12-08T21:40:17.523Z,96774.13
2017-12-08T21:42:43.816Z,96769.64
2017-12-08T21:45:10.141Z,96768.21
2017-12-08T21:47:36.692Z,96763.72
2017-12-08T21:50:03.006Z,96770.03
2017-12-08T21:52:29.400Z,96767.63
2017-12-08T21:54:55.745Z,96770.13
2017-12-08T21:57:21.994Z,96765.28
2017-12-08T21:59:48.490Z,96767.92
2017-12-08T22:02:15.236Z,96764.48
2017-12-08T22:04:41.513Z,96762.91
2017-12-08T22:07:07.972Z,96771.42
2017-12-08T22:09:34.510Z,96770.30
2017-12-08T22:12:01.036Z,96771.25
2017-12-08T22:14:27.328Z,96769.64
2017-12-08T22:16:53.621Z,96767.23
2017-12-08T22:19:20.997Z,96767.89
2017-12-08T22:21:47.824Z,96766.19
2017-12-08T22:24:14.195Z,96766.42
2017-12-08T22:26:40.569Z,96774.82
2017-12-08T22:29:07.093Z,96776.39
2017-12-08T22:31:33.695Z,96784.95
2017-12-08T22:33:59.825Z,96777.25
2017-12-08T22:36:26.112Z,96780.19
2017-12-08T22:38:52.400Z,96780.86
2017-12-08T22:41:18.858Z,96789.72
2017-12-08T22:43:45.228Z,96791.75
2017-12-08T22:46:11.677Z,96797.31
2017-12-08T22:48:38.073Z,96799.59
2017-12-08T22:51:04.615Z,96793.88
2017-12-08T22:53:31.277Z,96793.08
2017-12-08T22:55:57.633Z,96794.02
2017-12-08T22:58:24.285Z,96794.33
2017-12-08T23:00:50.741Z,96791.47
2017-12-08T23:03:18.098Z,96792.17
2017-12-08T23:05:44.581Z,96791.67
2017-12-08T23:08:11.112Z,96797.23
2017-12-08T23:10:37.302Z,96796.99
2017-12-08T23:13:03.736Z,96792.37
2017-12-08T23:15:30.161Z,96797.27
2017-12-08T23:17:56.472Z,96792.87
2017-12-08T23:20:23.043Z,96794.17
2017-12-08T23:22:49.395Z,96782.70
2017-12-08T23:25:15.783Z,96784.91
2017-12-08T23:27:42.501Z,96783.22
2017-12-08T23:30:09.854Z,96787.97
2017-12-08T23:32:36.286Z,96785.09
2017-12-08T23:35:02.836Z,96796.95
2017-12-08T23:37:29.274Z,96794.45
2017-12-08T23:39:55.771Z,96797.08
2017-12-08T23:42:21.998Z,96799.61
2017-12-08T23:44:48.416Z,96794.03
2017-12-08T23:47:14.609Z,96793.87
2017-12-08T23:49:40.861Z,96795.58
2017-12-08T23:52:07.349Z,96791.95
2017-12-08T23:54:33.825Z,96795.58
2017-12-08T23:57:00.116Z,96790.48
2017-12-08T23:59:26.479Z,96800.36
